Time;durP1;ratioP1;P1;durP2;ratioP2;P2;SDS_P1;SDS_P2;PMS_P1;PMS_P2;Temp;Humidity;BMP_temperature;BMP_pressure;BME280_temperature;BME280_humidity;BME280_pressure;Samples;Min_cycle;Max_cycle;Signal;HPM_P1;HPM_P2
2021/08/05 00:00:35;;;;;;;;;5.75;5.75;;;;;23.16;47.51;100645.38;5059934;28;45327;-56
2021/08/05 00:03:00;;;;;;;;;4.50;4.25;;;;;23.14;47.59;100642.00;5059769;28;45359;-47
2021/08/05 00:05:26;;;;;;;;;4.25;4.25;;;;;23.15;47.47;100637.56;5041974;28;45501;-48
2021/08/05 00:07:51;;;;;;;;;4.00;4.00;;;;;23.15;47.77;100637.56;5058946;28;46498;-58
2021/08/05 00:10:16;;;;;;;;;4.25;4.25;;;;;23.13;47.70;100635.00;5059418;28;45308;-49
2021/08/05 00:12:42;;;;;;;;;5.75;5.00;;;;;23.15;47.54;100632.28;5059962;28;45509;-51
2021/08/05 00:15:08;;;;;;;;;4.50;4.50;;;;;23.15;47.63;100632.28;5059338;28;45660;-51
2021/08/05 00:17:33;;;;;;;;;4.50;4.50;;;;;23.13;47.64;100624.44;5059209;28;46338;-47
2021/08/05 00:19:59;;;;;;;;;6.25;5.50;;;;;23.14;47.98;100626.13;5059193;28;45266;-51
2021/08/05 00:22:24;;;;;;;;;4.00;4.00;;;;;23.13;47.52;100619.16;5060623;28;45228;-56
2021/08/05 00:24:49;;;;;;;;;3.25;3.25;;;;;23.13;47.98;100618.31;5060610;28;45299;-51
2021/08/05 00:27:15;;;;;;;;;4.50;4.50;;;;;23.14;47.80;100620.00;5061077;28;45407;-45
2021/08/05 00:29:40;;;;;;;;;3.50;3.00;;;;;23.10;47.67;100614.06;5062710;28;45453;-48
2021/08/05 00:32:06;;;;;;;;;4.50;4.00;;;;;23.13;47.87;100616.50;5062493;28;45294;-52
2021/08/05 00:34:31;;;;;;;;;8.75;6.00;;;;;23.14;47.86;100614.72;5061827;28;45569;-48
2021/08/05 00:36:56;;;;;;;;;5.00;5.00;;;;;23.12;47.74;100617.47;5058896;28;46530;-45
2021/08/05 00:39:22;;;;;;;;;6.25;5.00;;;;;23.13;47.70;100620.97;5059206;28;45408;-46
2021/08/05 00:41:47;;;;;;;;;5.50;5.00;;;;;23.11;47.69;100615.75;5057970;28;45386;-55
2021/08/05 00:44:12;;;;;;;;;6.25;6.25;;;;;23.10;47.92;100614.06;5059598;28;45300;-52
2021/08/05 00:46:38;;;;;;;;;4.00;4.00;;;;;23.11;47.99;100618.41;5058785;28;45401;-55
2021/08/05 00:49:04;;;;;;;;;3.00;3.00;;;;;23.10;47.82;100613.25;5058928;28;45465;-59
2021/08/05 00:51:29;;;;;;;;;4.00;4.00;;;;;23.11;47.86;100620.22;5059080;28;45443;-60
2021/08/05 00:53:55;;;;;;;;;3.75;3.75;;;;;23.09;47.88;100614.19;5059369;28;45268;-55
2021/08/05 00:56:20;;;;;;;;;5.25;5.25;;;;;23.09;47.95;100617.69;5058761;28;46331;-52
2021/08/05 00:58:45;;;;;;;;;5.00;5.00;;;;;23.12;47.79;100621.91;5059120;28;45239;-66
2021/08/05 01:01:16;;;;;;;;;5.25;4.75;;;;;23.10;48.15;100619.34;5059007;28;45528;-51
2021/08/05 01:03:44;;;;;;;;;5.00;5.00;;;;;23.08;48.01;100600.13;5059062;28;45305;-54
2021/08/05 01:06:31;;;;;;;;;4.75;4.75;;;;;23.07;47.84;100601.09;5058778;28;46461;-55
2021/08/05 01:09:08;;;;;;;;;6.25;6.25;;;;;23.08;47.75;100605.44;5058574;28;45662;-60
2021/08/05 01:11:56;;;;;;;;;6.50;6.50;;;;;23.06;48.14;100596.75;5058692;28;45391;-62
2021/08/05 01:14:24;;;;;;;;;5.50;5.25;;;;;23.06;47.97;100598.53;5040642;28;45407;-67
2021/08/05 01:16:51;;;;;;;;;6.00;6.00;;;;;23.04;48.09;100597.81;5058439;28;46265;-65
2021/08/05 01:19:40;;;;;;;;;4.00;4.00;;;;;23.05;48.10;100594.19;5059423;28;45671;-54
2021/08/05 01:22:26;;;;;;;;;6.75;5.75;;;;;23.02;47.84;100592.63;5076777;28;44924;-47
2021/08/05 01:25:09;;;;;;;;;5.25;5.00;;;;;23.02;47.84;100595.25;5065522;28;45362;-56
2021/08/05 01:27:36;;;;;;;;;5.50;5.25;;;;;23.01;47.85;100594.44;5059108;28;46239;-50
2021/08/05 01:30:04;;;;;;;;;7.75;5.75;;;;;23.00;48.00;100591.88;5059439;28;45887;-50
2021/08/05 01:32:30;;;;;;;;;8.00;7.00;;;;;23.00;48.07;100589.22;5061962;28;45785;-49
2021/08/05 01:34:58;;;;;;;;;4.75;4.75;;;;;23.00;48.08;100594.53;5062354;28;45205;-57
2021/08/05 01:37:24;;;;;;;;;5.25;5.00;;;;;22.98;48.20;100588.53;5060248;28;45275;-48
2021/08/05 01:39:50;;;;;;;;;6.00;5.00;;;;;22.98;48.06;100599.94;5058286;28;45373;-51
2021/08/05 01:42:20;;;;;;;;;8.50;6.00;;;;;22.98;47.86;100584.06;5058415;28;45341;-50
2021/08/05 01:44:47;;;;;;;;;9.50;7.00;;;;;22.98;48.33;100586.72;5058740;28;45593;-48
2021/08/05 01:47:14;;;;;;;;;7.50;6.25;;;;;22.97;48.14;100587.66;5057677;28;46451;-51
2021/08/05 01:49:41;;;;;;;;;9.00;6.50;;;;;22.97;48.43;100581.53;5057669;28;45259;-48
2021/08/05 01:52:07;;;;;;;;;5.00;5.00;;;;;22.98;48.09;100578.78;5056926;28;45342;-57
2021/08/05 01:54:34;;;;;;;;;8.25;6.50;;;;;22.97;48.07;100569.16;5057590;28;45402;-52
2021/08/05 01:56:59;;;;;;;;;6.50;6.00;;;;;22.98;48.01;100576.13;5057409;28;46373;-48
2021/08/05 01:59:24;;;;;;;;;6.75;6.75;;;;;23.00;48.08;100568.09;5057573;28;45367;-51
2021/08/05 02:01:50;;;;;;;;;7.50;5.50;;;;;23.01;47.71;100575.94;5057941;28;45426;-51
2021/08/05 02:04:28;;;;;;;;;6.00;6.00;;;;;22.99;48.26;100569.03;5057994;28;45324;-51
2021/08/05 02:07:02;;;;;;;;;5.50;5.50;;;;;23.01;48.10;100572.44;5057488;28;45653;-47
2021/08/05 02:10:04;;;;;;;;;8.75;8.75;;;;;23.03;48.18;100577.63;5057896;28;45622;-51
2021/08/05 02:12:42;;;;;;;;;7.00;5.00;;;;;23.00;48.21;100558.38;5057635;28;45389;-48
2021/08/05 02:15:08;;;;;;;;;7.50;7.50;;;;;23.00;48.06;100562.81;5060986;28;45569;-46
2021/08/05 02:17:37;;;;;;;;;6.50;6.50;;;;;23.00;48.05;100557.53;5045967;28;46639;-56
2021/08/05 02:20:06;;;;;;;;;7.50;7.00;;;;;22.99;48.11;100556.69;5057727;28;45442;-51
2021/08/05 02:22:33;;;;;;;;;9.25;7.00;;;;;22.97;48.18;100553.31;5057518;28;45366;-51
2021/08/05 02:24:58;;;;;;;;;9.00;8.00;;;;;22.97;48.09;100558.59;5057593;28;45562;-46
2021/08/05 02:27:26;;;;;;;;;6.75;6.00;;;;;22.98;48.02;100560.28;5057813;28;46268;-46
2021/08/05 02:29:52;;;;;;;;;7.50;7.00;;;;;22.98;48.13;100551.53;5058143;28;45715;-46
2021/08/05 02:32:18;;;;;;;;;9.00;8.50;;;;;22.98;48.08;100559.44;5060391;28;45351;-46
2021/08/05 02:34:45;;;;;;;;;11.00;8.00;;;;;22.97;48.08;100547.19;5060728;28;45432;-47
2021/08/05 02:37:10;;;;;;;;;9.50;7.00;;;;;22.97;48.23;100547.19;5060143;28;46792;-46
2021/08/05 02:39:36;;;;;;;;;7.75;7.75;;;;;22.96;48.33;100545.50;5058970;28;45398;-46
2021/08/05 02:42:02;;;;;;;;;7.00;7.00;;;;;22.95;48.36;100541.16;5057695;28;45378;-49
2021/08/05 02:44:29;;;;;;;;;6.50;6.25;;;;;22.97;48.19;100539.25;5057793;28;45244;-49
2021/08/05 02:46:55;;;;;;;;;7.00;7.00;;;;;22.96;48.19;100548.13;5039164;28;47204;-51
2021/08/05 02:49:21;;;;;;;;;6.00;6.00;;;;;22.94;48.33;100540.28;5057398;28;45347;-49
2021/08/05 02:51:46;;;;;;;;;7.50;7.50;;;;;22.96;48.44;100542.84;5057788;28;45311;-49
2021/08/05 02:54:15;;;;;;;;;8.50;7.00;;;;;22.95;48.41;100542.00;5057735;28;45602;-50
2021/08/05 02:56:40;;;;;;;;;6.00;6.00;;;;;22.95;48.09;100546.44;5057147;28;46858;-54
2021/08/05 02:59:06;;;;;;;;;6.25;6.25;;;;;22.95;48.34;100538.50;5056797;28;45314;-56
2021/08/05 03:01:31;;;;;;;;;8.00;6.50;;;;;22.94;48.29;100535.00;5057381;28;45362;-53
2021/08/05 03:03:56;;;;;;;;;6.75;6.50;;;;;22.95;48.41;100541.16;5039000;28;45438;-58
2021/08/05 03:06:28;;;;;;;;;6.00;6.00;;;;;22.94;48.43;100534.19;5057789;28;46987;-48
2021/08/05 03:08:55;;;;;;;;;7.25;7.25;;;;;22.94;48.56;100531.53;5062491;28;45669;-46
2021/08/05 03:11:20;;;;;;;;;6.50;6.50;;;;;22.94;48.44;100526.25;5071671;28;45238;-46
2021/08/05 03:13:46;;;;;;;;;6.50;6.50;;;;;22.92;48.19;100534.31;5059589;28;45316;-50
2021/08/05 03:16:12;;;;;;;;;7.75;7.75;;;;;22.94;48.54;100536.81;5058552;28;46268;-51
2021/08/05 03:18:37;;;;;;;;;7.00;7.00;;;;;22.92;48.61;100528.16;5057172;28;45242;-52
2021/08/05 03:21:03;;;;;;;;;9.25;8.25;;;;;22.93;48.62;100529.84;5057735;28;45320;-48
2021/08/05 03:23:29;;;;;;;;;8.75;7.00;;;;;22.93;48.48;100527.19;5040534;28;45391;-47
2021/08/05 03:25:54;;;;;;;;;7.50;7.50;;;;;22.91;48.52;100519.38;5057468;28;45424;-46
2021/08/05 03:28:19;;;;;;;;;7.75;6.75;;;;;22.92;48.89;100515.81;5058010;28;45264;-47
2021/08/05 03:30:45;;;;;;;;;7.25;7.25;;;;;22.92;48.84;100514.94;5057148;28;45593;-47
2021/08/05 03:33:10;;;;;;;;;8.00;6.00;;;;;22.92;48.74;100521.09;5040081;28;45289;-46
2021/08/05 03:35:36;;;;;;;;;7.50;5.00;;;;;22.90;48.71;100512.41;5060242;28;46857;-49
2021/08/05 03:38:01;;;;;;;;;8.75;7.00;;;;;22.91;48.53;100513.25;5061799;28;45243;-47
2021/08/05 03:40:26;;;;;;;;;7.50;7.50;;;;;22.91;48.53;100507.97;5062062;28;45311;-49
2021/08/05 03:42:52;;;;;;;;;6.75;6.75;;;;;22.90;48.63;100504.50;5058272;28;45644;-53
2021/08/05 03:45:17;;;;;;;;;8.75;7.00;;;;;22.90;48.82;100511.56;5056281;28;46231;-47
2021/08/05 03:47:42;;;;;;;;;9.75;8.50;;;;;22.87;48.59;100509.16;5056599;28;45307;-51
2021/08/05 03:50:08;;;;;;;;;8.00;7.00;;;;;22.84;48.73;100507.53;5056480;28;45370;-47
2021/08/05 03:52:33;;;;;;;;;8.25;8.00;;;;;22.85;48.78;100509.25;5056100;28;45330;-51
2021/08/05 03:54:59;;;;;;;;;7.00;7.00;;;;;22.87;48.93;100507.34;5056332;28;46326;-47
2021/08/05 03:57:24;;;;;;;;;8.00;7.50;;;;;22.88;48.88;100518.75;5056636;28;45356;-52
2021/08/05 03:59:50;;;;;;;;;8.75;8.25;;;;;22.87;48.91;100512.63;5056581;28;45359;-48
2021/08/05 04:02:15;;;;;;;;;7.00;7.00;;;;;22.86;48.88;100508.28;5056517;28;45300;-50
2021/08/05 04:04:41;;;;;;;;;7.00;7.00;;;;;22.85;48.95;100510.09;5055981;28;45353;-52
2021/08/05 04:07:07;;;;;;;;;8.25;8.00;;;;;22.85;48.81;100504.81;5055820;28;45256;-49
2021/08/05 04:09:33;;;;;;;;;10.25;9.25;;;;;22.83;48.88;100488.22;5058675;28;45391;-47
2021/08/05 04:11:58;;;;;;;;;7.00;7.00;;;;;22.85;49.04;100496.88;5074522;28;45368;-49
2021/08/05 04:14:23;;;;;;;;;11.25;9.00;;;;;22.85;48.88;100498.66;5080862;28;45643;-51
2021/08/05 04:16:49;;;;;;;;;6.50;6.50;;;;;22.85;49.02;100504.81;5083236;28;44619;-56
2021/08/05 04:19:14;;;;;;;;;8.00;7.75;;;;;22.87;48.78;100503.88;5078436;28;44735;-48
2021/08/05 04:21:40;;;;;;;;;9.75;9.25;;;;;22.87;49.10;100507.34;5059840;28;45489;-49
2021/08/05 04:24:06;;;;;;;;;9.25;8.50;;;;;22.85;49.01;100499.53;5041291;28;47043;-48
2021/08/05 04:26:31;;;;;;;;;9.25;8.25;;;;;22.85;49.11;100503.94;5058780;28;45352;-50
2021/08/05 04:28:56;;;;;;;;;8.25;8.00;;;;;22.85;48.88;100507.47;5059864;28;45458;-47
2021/08/05 04:31:22;;;;;;;;;8.75;8.75;;;;;22.86;49.04;100500.38;5059829;28;45307;-50
2021/08/05 04:33:48;;;;;;;;;6.25;6.25;;;;;22.86;48.94;100500.38;5060828;28;45425;-47
2021/08/05 04:36:13;;;;;;;;;7.75;7.25;;;;;22.85;49.08;100496.88;5063147;28;45800;-47
2021/08/05 04:38:39;;;;;;;;;7.00;7.00;;;;;22.87;48.91;100504.69;5064906;28;45319;-55
2021/08/05 04:41:04;;;;;;;;;8.00;8.00;;;;;22.88;49.01;100502.88;5063663;28;45285;-47
2021/08/05 04:43:29;;;;;;;;;9.50;8.50;;;;;22.89;48.97;100512.50;5062843;28;48676;-47
2021/08/05 04:45:55;;;;;;;;;8.50;8.00;;;;;22.87;49.07;100498.59;5059948;28;45419;-46
2021/08/05 04:48:20;;;;;;;;;10.75;8.50;;;;;22.90;49.13;100495.69;5059348;28;45378;-49
2021/08/05 04:50:45;;;;;;;;;8.50;8.50;;;;;22.89;49.08;100494.88;5059916;28;45213;-47
2021/08/05 04:53:16;;;;;;;;;10.00;8.25;;;;;22.91;49.19;100495.59;5059614;28;46282;-54
2021/08/05 04:55:41;;;;;;;;;8.25;7.00;;;;;22.93;49.03;100500.78;5059747;28;45385;-48
2021/08/05 04:58:07;;;;;;;;;8.50;8.25;;;;;22.94;48.92;100507.75;5042158;28;45375;-56
2021/08/05 05:00:38;;;;;;;;;6.50;6.50;;;;;22.96;49.01;100508.50;5072808;28;44946;-46
2021/08/05 05:03:04;;;;;;;;;8.75;8.00;;;;;22.96;49.04;100517.25;5080820;28;46584;-53
2021/08/05 05:05:31;;;;;;;;;7.75;7.75;;;;;22.98;49.00;100517.16;5050874;28;45237;-47
2021/08/05 05:07:56;;;;;;;;;11.25;10.00;;;;;22.98;48.79;100517.16;5043127;28;45371;-48
2021/08/05 05:10:23;;;;;;;;;9.00;9.00;;;;;22.98;49.00;100522.44;5064058;28;45461;-47
2021/08/05 05:12:49;;;;;;;;;9.50;9.50;;;;;22.98;49.33;100525.91;5080053;28;45452;-51
2021/08/05 05:15:15;;;;;;;;;9.25;9.25;;;;;22.98;49.57;100517.16;5079832;28;45299;-54
2021/08/05 05:17:43;;;;;;;;;11.25;10.25;;;;;22.98;49.50;100525.09;5080548;28;45155;-53
2021/08/05 05:20:10;;;;;;;;;12.75;11.25;;;;;22.95;49.43;100514.72;5079731;28;44837;-49
2021/08/05 05:22:36;;;;;;;;;9.50;8.50;;;;;22.93;49.29;100511.34;5063897;28;46270;-49
2021/08/05 05:25:05;;;;;;;;;11.75;9.25;;;;;22.91;49.36;100522.03;5077400;28;45437;-52
2021/08/05 05:27:30;;;;;;;;;11.00;11.00;;;;;22.88;49.56;100518.75;5078792;28;45312;-48
2021/08/05 05:29:59;;;;;;;;;11.25;10.00;;;;;22.83;49.32;100517.28;5069401;28;45339;-47
2021/08/05 05:32:25;;;;;;;;;9.50;9.50;;;;;22.80;49.17;100516.66;5061519;28;46469;-61
2021/08/05 05:34:51;;;;;;;;;10.00;8.50;;;;;22.77;49.40;100512.41;5062465;28;45856;-46
2021/08/05 05:37:16;;;;;;;;;10.75;10.00;;;;;22.76;49.40;100516.03;5062006;28;45908;-46
2021/08/05 05:39:42;;;;;;;;;9.25;7.25;;;;;22.73;49.68;100524.16;5065195;28;45489;-46
2021/08/05 05:42:07;;;;;;;;;11.50;11.50;;;;;22.73;49.54;100525.94;5065101;28;46564;-49
2021/08/05 05:44:32;;;;;;;;;9.50;8.25;;;;;22.70;49.68;100521.72;5063284;28;45470;-49
2021/08/05 05:46:58;;;;;;;;;11.00;9.50;;;;;22.69;49.76;100517.41;5059593;28;45382;-65
2021/08/05 05:49:24;;;;;;;;;9.75;8.00;;;;;22.69;49.75;100522.69;5058803;28;45461;-46
2021/08/05 05:51:49;;;;;;;;;12.00;12.00;;;;;22.69;49.50;100525.31;5058295;28;45660;-49
2021/08/05 05:54:14;;;;;;;;;11.50;11.50;;;;;22.67;49.78;100527.22;5058597;28;45336;-47
2021/08/05 05:56:40;;;;;;;;;10.50;10.50;;;;;22.66;49.68;100528.16;5058428;28;45352;-49
2021/08/05 05:59:05;;;;;;;;;10.75;10.50;;;;;22.62;49.66;100521.44;5058640;28;45390;-48
2021/08/05 06:01:30;;;;;;;;;10.75;9.50;;;;;22.64;49.61;100532.72;5057942;28;50509;-47
2021/08/05 06:03:56;;;;;;;;;8.75;7.50;;;;;22.61;49.86;100531.13;5057982;28;45584;-54
2021/08/05 06:06:21;;;;;;;;;11.25;10.00;;;;;22.59;49.67;100535.69;5060256;28;45346;-46
2021/08/05 06:08:46;;;;;;;;;11.50;10.50;;;;;22.58;49.84;100535.78;5060390;28;45609;-48
2021/08/05 06:11:12;;;;;;;;;11.00;10.25;;;;;22.56;49.90;100535.91;5060929;28;46413;-49
2021/08/05 06:13:37;;;;;;;;;10.50;10.50;;;;;22.54;49.74;100535.16;5062967;28;45300;-49
2021/08/05 06:16:02;;;;;;;;;10.00;10.00;;;;;22.53;49.82;100544.03;5057480;28;52917;-49
2021/08/05 06:18:28;;;;;;;;;10.75;9.50;;;;;22.51;49.69;100544.16;5057684;28;45178;-56
2021/08/05 06:20:53;;;;;;;;;7.25;7.25;;;;;22.51;49.76;100538.84;5057383;28;46511;-46
2021/08/05 06:23:18;;;;;;;;;6.75;6.75;;;;;22.50;49.77;100546.88;5057680;28;45245;-48
2021/08/05 06:25:44;;;;;;;;;10.00;8.25;;;;;22.50;49.96;100553.00;5057393;28;45297;-49
2021/08/05 06:28:09;;;;;;;;;11.75;10.25;;;;;22.49;49.88;100545.22;5057954;28;45413;-51
2021/08/05 06:30:34;;;;;;;;;11.25;10.75;;;;;22.47;49.99;100542.66;5057342;28;46397;-49
2021/08/05 06:33:00;;;;;;;;;8.50;8.00;;;;;22.48;49.91;100543.50;5057601;28;45374;-58
2021/08/05 06:35:25;;;;;;;;;11.25;9.00;;;;;22.46;49.57;100540.13;5057591;28;45224;-59
2021/08/05 06:37:51;;;;;;;;;11.50;10.00;;;;;22.45;49.70;100533.97;5057561;28;45438;-62
2021/08/05 06:40:18;;;;;;;;;10.25;10.25;;;;;22.45;49.91;100539.25;5056792;28;47527;-57
2021/08/05 06:42:43;;;;;;;;;10.50;10.00;;;;;22.45;49.84;100535.78;5057908;28;45305;-51
2021/08/05 06:45:11;;;;;;;;;9.50;9.50;;;;;22.44;49.96;100532.28;5057178;28;45368;-57
2021/08/05 06:47:41;;;;;;;;;14.00;11.75;;;;;22.42;50.04;100534.22;5059457;28;45204;-64
2021/08/05 06:50:08;;;;;;;;;7.75;7.75;;;;;22.41;49.95;100532.53;5060996;28;46591;-58
2021/08/05 06:52:34;;;;;;;;;10.50;10.50;;;;;22.41;49.78;100536.94;5076457;28;45354;-58
2021/08/05 06:54:59;;;;;;;;;10.25;8.25;;;;;22.40;50.16;100525.50;5075206;28;45325;-47
2021/08/05 06:57:25;;;;;;;;;12.75;11.50;;;;;22.38;50.02;100530.88;5059595;28;45603;-50
2021/08/05 06:59:50;;;;;;;;;9.75;9.75;;;;;22.41;50.07;100531.66;5056779;28;46471;-49
2021/08/05 07:02:16;;;;;;;;;11.00;9.00;;;;;22.43;50.00;100530.63;5056595;28;52891;-62
2021/08/05 07:04:41;;;;;;;;;9.50;9.00;;;;;22.46;50.19;100534.84;5057324;28;45285;-55
2021/08/05 07:07:06;;;;;;;;;11.25;11.25;;;;;22.49;50.11;100537.28;5057250;28;45490;-50
2021/08/05 07:09:32;;;;;;;;;9.25;9.25;;;;;22.50;50.08;100537.16;5056749;28;46124;-49
2021/08/05 07:11:57;;;;;;;;;9.75;9.50;;;;;22.52;50.11;100534.41;5058482;28;45329;-57
2021/08/05 07:14:22;;;;;;;;;10.25;9.50;;;;;22.53;50.10;100536.97;5070121;28;45255;-50
2021/08/05 07:16:47;;;;;;;;;11.75;9.25;;;;;22.56;49.96;100546.47;5068692;28;45686;-63
2021/08/05 07:19:13;;;;;;;;;11.50;11.00;;;;;22.60;50.13;100545.28;5069374;28;46255;-47
2021/08/05 07:21:38;;;;;;;;;9.00;8.00;;;;;22.60;50.17;100542.63;5040152;28;45623;-62
2021/08/05 07:24:04;;;;;;;;;9.50;8.25;;;;;22.62;49.68;100535.47;5057423;28;45345;-56
2021/08/05 07:26:29;;;;;;;;;8.00;8.00;;;;;22.64;49.78;100535.38;5058843;28;45664;-50
2021/08/05 07:28:55;;;;;;;;;9.00;8.25;;;;;22.65;49.84;100529.16;5056962;28;46234;-50
2021/08/05 07:31:20;;;;;;;;;10.25;9.75;;;;;22.66;49.77;100536.94;5057138;28;45388;-47
2021/08/05 07:33:48;;;;;;;;;12.75;11.00;;;;;22.68;49.80;100544.75;5057677;28;45444;-58
2021/08/05 07:36:15;;;;;;;;;7.25;7.25;;;;;22.70;50.10;100550.78;5057633;28;45373;-47
2021/08/05 07:38:40;;;;;;;;;14.00;12.25;;;;;22.69;50.03;100541.16;5064134;28;46573;-60
2021/08/05 07:41:05;;;;;;;;;11.75;11.00;;;;;22.73;49.80;100549.72;5049249;28;45353;-50
2021/08/05 07:43:31;;;;;;;;;12.25;11.25;;;;;22.73;49.96;100547.94;5066948;28;45222;-52
2021/08/05 07:45:56;;;;;;;;;12.00;12.00;;;;;22.74;49.97;100541.72;5043113;28;45562;-54
2021/08/05 07:48:22;;;;;;;;;17.75;14.00;;;;;22.75;49.93;100542.53;5066589;28;45557;-48
2021/08/05 07:50:47;;;;;;;;;13.50;11.75;;;;;22.75;49.92;100538.13;5067681;28;45142;-64
2021/08/05 07:53:12;;;;;;;;;14.25;11.00;;;;;22.77;50.35;100544.13;5050349;28;45561;-59
2021/08/05 07:55:38;;;;;;;;;13.50;11.00;;;;;22.78;50.05;100535.25;5071386;28;45269;-52
2021/08/05 07:58:03;;;;;;;;;13.50;11.50;;;;;22.80;49.63;100538.63;5067290;28;46008;-55
2021/08/05 08:00:28;;;;;;;;;12.25;12.00;;;;;22.82;49.61;100543.81;5066055;28;45690;-60
2021/08/05 08:02:53;;;;;;;;;10.75;10.50;;;;;22.81;49.97;100534.22;5067081;28;45435;-62
2021/08/05 08:05:19;;;;;;;;;11.25;11.00;;;;;22.83;49.60;100537.56;5067119;28;45324;-59
2021/08/05 08:07:44;;;;;;;;;13.00;11.00;;;;;22.85;49.62;100546.22;5049626;28;46385;-61
2021/08/05 08:10:11;;;;;;;;;15.00;11.75;;;;;22.85;49.61;100536.53;5049913;28;45158;-57
2021/08/05 08:12:37;;;;;;;;;10.25;10.25;;;;;22.87;49.78;100532.94;5067585;28;45338;-53
2021/08/05 08:15:03;;;;;;;;;13.75;12.25;;;;;22.88;49.45;100529.31;5067335;28;45276;-63
2021/08/05 08:17:29;;;;;;;;;10.50;9.50;;;;;22.90;49.54;100528.28;5066676;28;45734;-57
2021/08/05 08:19:54;;;;;;;;;13.50;11.50;;;;;22.90;49.68;100533.56;5065486;28;45342;-61
2021/08/05 08:22:19;;;;;;;;;15.00;12.25;;;;;22.90;49.59;100522.13;5064513;28;45462;-60
2021/08/05 08:24:45;;;;;;;;;13.75;12.00;;;;;22.91;49.70;100518.53;5062174;28;45444;-59
2021/08/05 08:27:10;;;;;;;;;12.00;12.00;;;;;22.92;49.83;100515.81;5061219;28;47124;-55
2021/08/05 08:29:35;;;;;;;;;11.00;10.75;;;;;22.95;49.60;100523.50;5059564;28;45403;-58
2021/08/05 08:32:01;;;;;;;;;11.50;11.50;;;;;22.94;49.47;100513.88;5060647;28;45253;-59
2021/08/05 08:34:26;;;;;;;;;13.50;12.50;;;;;22.97;49.30;100507.53;5041647;28;45718;-60
2021/08/05 08:36:52;;;;;;;;;11.00;9.50;;;;;22.97;49.63;100512.81;5060435;28;45598;-62
2021/08/05 08:39:18;;;;;;;;;10.00;8.75;;;;;22.97;49.67;100508.38;5059898;28;45400;-57
2021/08/05 08:41:44;;;;;;;;;11.50;10.00;;;;;22.98;49.71;100512.72;5064473;28;45309;-59
2021/08/05 08:44:10;;;;;;;;;11.75;11.75;;;;;22.97;49.84;100505.72;5075721;28;45178;-62
2021/08/05 08:46:36;;;;;;;;;12.50;10.25;;;;;22.99;49.90;100509.13;5065594;28;46378;-62
2021/08/05 08:49:03;;;;;;;;;13.00;11.75;;;;;23.00;49.78;100510.81;5058941;28;45426;-62
2021/08/05 08:51:32;;;;;;;;;13.25;12.50;;;;;23.03;49.63;100516.84;5059126;28;45402;-52
2021/08/05 08:54:02;;;;;;;;;10.50;9.50;;;;;23.02;49.64;100510.69;5059796;28;45320;-62
2021/08/05 08:56:30;;;;;;;;;11.50;11.25;;;;;23.04;49.63;100508.78;5061009;28;46433;-55
2021/08/05 08:58:57;;;;;;;;;11.25;10.00;;;;;23.05;49.59;100507.84;5061708;28;45798;-59
2021/08/05 09:01:24;;;;;;;;;10.75;10.00;;;;;23.05;49.52;100507.84;5062081;28;45355;-59
2021/08/05 09:03:49;;;;;;;;;14.00;10.25;;;;;23.08;49.50;100509.41;5062217;28;45166;-60
2021/08/05 09:06:14;;;;;;;;;10.75;10.75;;;;;23.09;49.69;100506.66;5058150;28;46268;-59
2021/08/05 09:08:41;;;;;;;;;9.00;9.00;;;;;23.10;49.33;100510.16;5059015;28;45255;-55
2021/08/05 09:11:07;;;;;;;;;11.25;11.25;;;;;23.11;49.64;100509.19;5058868;28;45424;-53
2021/08/05 09:13:32;;;;;;;;;9.75;9.00;;;;;23.12;49.75;100511.72;5041234;28;45721;-50
2021/08/05 09:15:57;;;;;;;;;9.25;9.25;;;;;23.15;49.86;100515.97;5058294;28;45555;-48
2021/08/05 09:18:41;;;;;;;;;11.25;9.25;;;;;23.15;50.15;100506.22;5058984;28;45499;-55
2021/08/05 09:21:21;;;;;;;;;11.75;10.25;;;;;23.19;49.97;100513.94;5067327;28;45426;-63
2021/08/05 09:24:04;;;;;;;;;12.25;10.50;;;;;23.18;50.04;100502.50;5059446;28;45362;-61
2021/08/05 09:26:59;;;;;;;;;11.25;11.25;;;;;23.22;50.02;100505.78;5058222;28;47395;-52
2021/08/05 09:29:24;;;;;;;;;14.00;11.50;;;;;23.26;49.71;100517.84;5055930;28;45766;-58
2021/08/05 09:31:50;;;;;;;;;12.50;10.75;;;;;23.26;49.40;100513.38;5058430;28;45339;-59
2021/08/05 09:34:17;;;;;;;;;8.75;8.75;;;;;23.28;49.59;100508.00;5058529;28;45463;-57
2021/08/05 09:36:44;;;;;;;;;10.50;8.50;;;;;23.28;49.34;100511.47;5058623;28;45315;-50
2021/08/05 09:39:23;;;;;;;;;9.00;9.00;;;;;23.30;49.60;100512.22;5060308;28;45189;-61
2021/08/05 09:42:02;;;;;;;;;11.50;11.00;;;;;23.30;49.60;100501.66;5063140;28;45382;-62
2021/08/05 09:44:36;;;;;;;;;8.00;8.00;;;;;23.34;49.57;100512.84;5058608;28;45307;-61
2021/08/05 09:47:07;;;;;;;;;11.50;11.50;;;;;23.36;49.58;100503.00;5057878;28;46575;-60
2021/08/05 09:49:37;;;;;;;;;8.50;6.75;;;;;23.38;49.63;100502.88;5058167;28;45377;-53
2021/08/05 09:52:09;;;;;;;;;11.75;10.00;;;;;23.39;48.82;100492.22;5058290;28;45162;-59
2021/08/05 09:54:40;;;;;;;;;8.75;8.25;;;;;23.42;49.11;100491.13;5059187;28;45431;-57
2021/08/05 09:57:07;;;;;;;;;10.75;9.75;;;;;23.43;49.23;100493.66;5058144;28;47005;-58
2021/08/05 09:59:33;;;;;;;;;10.75;8.00;;;;;23.44;48.54;100487.41;5043430;28;45752;-61
2021/08/05 10:02:05;;;;;;;;;10.25;9.00;;;;;23.46;48.48;100485.50;5061812;28;45349;-64
2021/08/05 10:04:35;;;;;;;;;7.50;6.75;;;;;23.48;48.77;100485.41;5060895;28;45328;-51
2021/08/05 10:07:07;;;;;;;;;13.00;9.00;;;;;23.50;48.48;100472.06;5057841;28;46092;-60
2021/08/05 10:09:35;;;;;;;;;8.00;7.50;;;;;23.47;47.87;100475.78;5057603;28;45450;-53
2021/08/05 10:12:21;;;;;;;;;9.50;9.50;;;;;23.49;48.04;100470.38;5057713;28;45506;-59
2021/08/05 10:15:02;;;;;;;;;12.00;10.50;;;;;23.45;47.74;100475.88;5056757;28;45782;-59
2021/08/05 10:17:28;;;;;;;;;8.75;8.75;;;;;23.46;47.71;100474.09;5056275;28;45767;-58
2021/08/05 10:19:57;;;;;;;;;9.50;8.50;;;;;23.44;47.68;100466.25;5057630;28;45322;-59
2021/08/05 10:22:23;;;;;;;;;7.50;7.50;;;;;23.44;47.55;100462.78;5057631;28;45276;-63
2021/08/05 10:24:51;;;;;;;;;9.75;7.25;;;;;23.42;47.70;100465.53;5056918;28;45583;-53
2021/08/05 10:27:18;;;;;;;;;8.75;8.50;;;;;23.45;47.75;100469.75;5039232;28;47882;-51
2021/08/05 10:29:45;;;;;;;;;7.75;7.75;;;;;23.44;47.43;100447.75;5057527;28;45819;-49
2021/08/05 10:32:12;;;;;;;;;8.50;6.50;;;;;23.45;47.48;100452.06;5064379;28;45838;-47
2021/08/05 10:34:39;;;;;;;;;7.25;7.25;;;;;23.47;47.43;100449.34;5080725;28;44885;-55
2021/08/05 10:37:07;;;;;;;;;8.00;7.00;;;;;23.47;47.38;100446.69;5060464;28;45853;-62
2021/08/05 10:39:34;;;;;;;;;5.50;5.50;;;;;23.46;47.48;100443.19;5057102;28;45925;-53
2021/08/05 10:42:04;;;;;;;;;7.00;5.75;;;;;23.46;47.37;100440.53;5057049;28;45485;-47
2021/08/05 10:44:29;;;;;;;;;8.75;8.75;;;;;23.46;47.64;100439.72;5039151;28;45181;-47
2021/08/05 10:46:57;;;;;;;;;7.00;6.00;;;;;23.47;47.54;100426.38;5056450;28;46251;-44
2021/08/05 10:49:24;;;;;;;;;8.50;8.00;;;;;23.47;47.50;100428.19;5056876;28;45849;-51
2021/08/05 10:51:50;;;;;;;;;8.50;7.25;;;;;23.48;47.60;100427.22;5056872;28;45445;-49
2021/08/05 10:54:46;;;;;;;;;6.75;4.75;;;;;23.47;47.24;100430.81;5058216;28;45339;-61
2021/08/05 10:57:17;;;;;;;;;8.25;7.00;;;;;23.44;46.76;100431.88;5056885;28;46367;-55
2021/08/05 11:00:04;;;;;;;;;7.50;7.00;;;;;23.45;46.77;100417.69;5058699;28;45727;-57
2021/08/05 11:02:51;;;;;;;;;8.75;7.50;;;;;23.42;46.52;100412.66;5060213;28;45333;-56
2021/08/05 11:05:22;;;;;;;;;7.00;6.50;;;;;23.45;46.42;100416.88;5060302;28;45208;-57
2021/08/05 11:07:52;;;;;;;;;8.00;6.00;;;;;23.44;46.90;100413.34;5056611;28;45338;-48
2021/08/05 11:10:20;;;;;;;;;5.50;5.50;;;;;23.46;46.24;100406.16;5057368;28;45779;-47
2021/08/05 11:12:48;;;;;;;;;6.00;6.00;;;;;23.47;46.41;100394.63;5058679;28;45442;-56
2021/08/05 11:15:21;;;;;;;;;6.00;6.00;;;;;23.50;46.59;100390.06;5058640;28;45402;-50
2021/08/05 11:20:35;;;;;;;;;5.25;5.25;;;;;23.50;46.45;100390.91;5043601;28;45327;-54
2021/08/05 11:23:01;;;;;;;;;7.25;6.00;;;;;23.51;46.46;100381.19;5058037;28;45367;-50